createdAt,value
2018-12-17T00:09:10.353Z,5.80
2018-12-17T00:17:16.411Z,5.70
2018-12-17T00:45:37.285Z,5.50
2018-12-17T00:57:46.154Z,5.50
2018-12-17T01:09:55.189Z,5.50
2018-12-17T01:26:08.021Z,5.50
2018-12-17T01:30:11.234Z,5.50
2018-12-17T01:42:20.230Z,5.50
2018-12-17T01:50:26.477Z,5.60
2018-12-17T02:22:50.178Z,5.50
2018-12-17T02:30:56.215Z,5.50
2018-12-17T02:34:59.278Z,5.50
2018-12-17T02:43:05.376Z,5.60
2018-12-17T02:59:17.281Z,5.50
2018-12-17T03:11:26.327Z,5.60
2018-12-17T03:23:35.325Z,5.70
2018-12-17T03:27:38.413Z,5.80
2018-12-17T03:47:53.499Z,5.80
2018-12-17T04:20:16.867Z,5.90
2018-12-17T04:28:23.174Z,5.90
2018-12-17T04:32:26.329Z,5.90
2018-12-17T04:36:29.483Z,5.90
2018-12-17T04:40:32.649Z,5.90
2018-12-17T04:48:38.678Z,5.90
2018-12-17T05:08:53.489Z,5.90
2018-12-17T05:16:59.478Z,6.00
2018-12-17T05:21:03.566Z,6.00
2018-12-17T05:25:07.171Z,6.00
2018-12-17T05:33:13.279Z,6.00
2018-12-17T05:37:16.449Z,6.00
2018-12-17T05:49:25.326Z,6.10
2018-12-17T05:57:31.373Z,6.10
2018-12-17T06:09:40.225Z,6.10
2018-12-17T06:21:49.059Z,6.20
2018-12-17T06:38:00.902Z,6.30
2018-12-17T06:42:04.055Z,6.30
2018-12-17T06:54:13.097Z,6.30
2018-12-17T07:02:19.625Z,6.30
2018-12-17T07:10:25.654Z,6.30
2018-12-17T07:14:28.738Z,6.30
2018-12-17T07:26:37.682Z,6.40
2018-12-17T07:38:46.738Z,6.40
2018-12-17T08:07:07.383Z,6.50
2018-12-17T08:15:13.629Z,6.60
2018-12-17T08:19:16.835Z,6.60
2018-12-17T08:27:22.893Z,6.70
2018-12-17T08:31:26.078Z,6.70
2018-12-17T08:39:32.186Z,6.70
2018-12-17T08:43:35.306Z,6.70
2018-12-17T08:51:41.488Z,6.80
2018-12-17T08:59:47.685Z,6.80
2018-12-17T09:07:53.706Z,6.80
2018-12-17T09:11:56.803Z,6.80
2018-12-17T09:20:03.540Z,6.90
2018-12-17T09:24:06.926Z,6.90
2018-12-17T09:52:39.700Z,7.00
2018-12-17T09:56:42.858Z,7.00
2018-12-17T10:00:46.036Z,7.00
2018-12-17T10:12:55.090Z,7.10
2018-12-17T10:16:58.538Z,7.10
2018-12-17T10:29:08.416Z,7.30
2018-12-17T10:33:17.199Z,7.30
2018-12-17T10:37:20.418Z,7.30
2018-12-17T10:49:29.533Z,7.50
2018-12-17T10:58:56.695Z,7.50
2018-12-17T11:03:05.607Z,7.60
2018-12-17T11:11:13.700Z,7.70
2018-12-17T11:15:16.933Z,7.70
2018-12-17T11:19:20.285Z,7.80
2018-12-17T11:47:43.297Z,8.10
2018-12-17T11:51:46.568Z,8.10
2018-12-17T11:55:49.798Z,8.20
2018-12-17T11:59:53.930Z,8.20
2018-12-17T12:20:08.971Z,8.50
2018-12-17T12:40:24.042Z,8.50
2018-12-17T12:48:30.459Z,8.50
2018-12-17T13:16:51.302Z,8.60
2018-12-17T13:29:00.382Z,8.60
2018-12-17T13:53:23.951Z,8.70
2018-12-17T13:57:27.108Z,8.80
2018-12-17T14:01:31.141Z,8.70
2018-12-17T14:26:01.969Z,8.80
2018-12-17T14:34:08.861Z,8.90
2018-12-17T14:42:14.837Z,8.90
2018-12-17T14:54:23.953Z,8.80
2018-12-17T15:06:32.873Z,8.80
2018-12-17T15:10:36.033Z,8.90
2018-12-17T15:22:45.052Z,8.80
2018-12-17T15:30:51.245Z,8.80
2018-12-17T15:34:54.319Z,8.80
2018-12-17T15:43:00.389Z,8.80
2018-12-17T16:11:21.334Z,8.60
2018-12-17T16:23:36.198Z,8.60
2018-12-17T16:39:47.960Z,8.60
2018-12-17T16:51:57.069Z,8.60
2018-12-17T17:00:03.214Z,8.60
2018-12-17T17:12:12.281Z,8.60
2018-12-17T17:20:18.746Z,8.70
2018-12-17T17:24:22.042Z,8.70
2018-12-17T17:36:30.849Z,8.80
2018-12-17T17:48:39.701Z,8.80
2018-12-17T18:00:48.591Z,8.70
2018-12-17T18:04:51.743Z,8.70
2018-12-17T18:17:00.559Z,8.80
2018-12-17T18:29:09.572Z,8.70
2018-12-17T18:41:18.797Z,8.80
2018-12-17T18:45:21.943Z,8.80
2018-12-17T18:53:27.894Z,8.70
2018-12-17T18:57:31.033Z,8.70
2018-12-17T19:05:37.072Z,8.80
2018-12-17T19:13:43.162Z,8.70
2018-12-17T19:33:57.954Z,8.60
2018-12-17T19:54:12.816Z,8.40
2018-12-17T20:14:29.509Z,8.30
2018-12-17T20:26:38.419Z,8.30
2018-12-17T20:34:44.490Z,8.20
2018-12-17T20:38:47.684Z,8.10
2018-12-17T20:59:02.815Z,8.00
2018-12-17T21:03:05.942Z,7.90
2018-12-17T21:15:15.018Z,7.90
2018-12-17T21:23:21.397Z,7.90
2018-12-17T21:35:30.311Z,7.80
2018-12-17T21:39:33.477Z,7.80
2018-12-17T21:43:38.920Z,7.80
2018-12-17T21:47:42.141Z,7.80
2018-12-17T21:55:48.127Z,7.60
2018-12-17T21:59:51.366Z,7.60
2018-12-17T22:03:55.342Z,7.60
2018-12-17T22:12:01.391Z,7.60
2018-12-17T22:32:16.480Z,7.60
2018-12-17T22:40:22.525Z,7.60
2018-12-17T22:52:31.600Z,7.40
2018-12-17T23:13:03.534Z,7.30
2018-12-17T23:29:23.147Z,7.30
2018-12-17T23:37:31.142Z,7.30
2018-12-17T23:57:45.995Z,7.50
